Home   Weather   Germany   Wuppertal   Past weeks
Flag for Germany

Past Weather in Wuppertal, North Rhine-Westphalia, Germany — Yesterday and Last 2 Weeks

Currently: 88 °F. Passing clouds. (Weather station: Duesseldorf, Germany). See more current weather

Past Weather in Wuppertal — Graph

°F

Wuppertal Temperature Yesterday

Maximum temperature yesterday: 79 °F (at 5:50 pm)
Minimum temperature yesterday: 61 °F (at 2:50 am)
Average temperature yesterday: 70 °F

High & Low Weather Summary for the Past Weeks

 TemperatureHumidityPressure
High88 °F (Jun 16, 3:20 pm)100% (Jun 4, 3:50 am)30.36 "Hg (Jun 4, 3:50 am)
Low46 °F (Jun 13, 5:20 am)25% (Jun 2, 5:20 pm)29.86 "Hg (Jun 16, 4:50 pm)
Average67 °F69%30.13 "Hg
* Reported Jun 1 5:20 pm — Jun 16 5:50 pm, Wuppertal. Weather by CustomWeather, © 2021

Note: Actual official high and low records may vary slightly from our data, if they occured in-between our weather recording intervals... More about our weather records

Wuppertal Weather History for the Previous 24 Hours

Scroll right to see more
 ConditionsComfort  
Time TempWeatherWind HumidityBarometerVisibility
5:50 pm
Wed, Jun 16
88 °FPassing clouds.7 mph43%29.86 "HgN/A
5:20 pm88 °FPassing clouds.6 mph43%29.86 "HgN/A
4:50 pm88 °FPassing clouds.6 mph43%29.86 "HgN/A
4:20 pm88 °FPassing clouds.9 mph43%29.89 "HgN/A
3:50 pm88 °FPassing clouds.9 mph43%29.89 "HgN/A
3:20 pm88 °FPassing clouds.8 mph40%29.89 "HgN/A
2:50 pm86 °FSunny.8 mph43%29.89 "Hg10 mi
2:20 pm86 °FPassing clouds.9 mph43%29.92 "HgN/A
1:50 pm86 °FPassing clouds.7 mph43%29.92 "HgN/A
1:20 pm84 °FSunny.5 mph45%29.92 "Hg10 mi
12:50 pm82 °FPassing clouds.7 mph48%29.92 "HgN/A
12:20 pm82 °FPassing clouds.8 mph48%29.95 "HgN/A
11:50 am81 °FPassing clouds.6 mph51%29.95 "HgN/A
11:20 am79 °FSunny.6 mph54%29.95 "Hg10 mi
10:50 am79 °FPassing clouds.8 mph54%29.95 "HgN/A
10:20 am77 °FPassing clouds.7 mph57%29.95 "HgN/A
9:50 am75 °FPassing clouds.5 mph54%29.98 "HgN/A
9:20 am73 °FPassing clouds.5 mph61%29.98 "HgN/A
8:50 am70 °FSunny.2 mph64%29.98 "Hg10 mi
8:20 am68 °FPassing clouds.3 mph69%29.98 "HgN/A
7:50 am64 °FSunny.3 mph73%29.98 "Hg10 mi
7:20 am63 °FSunny.2 mph77%30.01 "Hg10 mi
6:50 am61 °FSunny.3 mph83%30.01 "Hg10 mi
6:20 am59 °FSunny.3 mph82%30.01 "Hg10 mi
5:50 am57 °FSunny.3 mph88%30.01 "Hg10 mi
5:20 am55 °FSunny.3 mph94%30.01 "Hg10 mi
4:50 am55 °FClear.1 mph88%30.04 "Hg10 mi
4:20 am57 °FClear.2 mph82%30.04 "Hg10 mi
3:50 am57 °FClear.2 mph88%30.04 "Hg10 mi
3:20 am57 °FClear.3 mph88%30.04 "Hg10 mi
2:50 am57 °FClear.2 mph88%30.04 "Hg10 mi
2:20 am57 °FClear.2 mph88%30.04 "Hg10 mi
1:50 am59 °FClear.2 mph82%30.07 "Hg10 mi
1:20 am59 °FClear.2 mph77%30.07 "Hg10 mi
12:50 am61 °FClear.3 mph77%30.07 "Hg10 mi
12:20 am63 °FClear.3 mph73%30.07 "Hg10 mi
11:50 pm
Tue, Jun 15
64 °FClear.5 mph68%30.07 "Hg10 mi
11:20 pm64 °FClear.6 mph68%30.07 "Hg10 mi
10:50 pm66 °FClear.6 mph64%30.07 "Hg10 mi
10:20 pm68 °FClear.7 mph56%30.07 "Hg10 mi
9:50 pm70 °FClear.7 mph53%30.07 "Hg10 mi
9:20 pm72 °FSunny.7 mph50%30.07 "Hg10 mi
8:50 pm73 °FSunny.8 mph50%30.07 "Hg10 mi
8:20 pm73 °FSunny.6 mph50%30.07 "Hg10 mi
7:50 pm75 °FPassing clouds.7 mph44%30.07 "HgN/A
7:20 pm77 °FPassing clouds.8 mph42%30.07 "HgN/A
Weather by CustomWeather, © 2021

See weather overview